San Jose del Cabo (SJD/MMSD)

Map

Destinations

Information

Location
San Jose del Cabo, Baja California Sur, Mexico
Local Time
04:36 / 4:36 am
GMT Time
11:36 / 11:36 am
Gates
Unassigned
No FAA reported delays
METAR
TAF TAF MMSD 240444Z 2406/2506 28004KT P6SM SKC FM241800 13015KT P6SM SCT240 BECMG 2503/2505 24005KT SKC